Sunday, March 24, 2019, 8:18 PM EDT
Back to Local

KEWB, New Bedford Regional Airport

Location: New Bedford, MA, United States Lat: 41.683
Local Time: 8:18 PM EDT ( 0:18 GMT) Lon: -70.967
Time Zone: US/Eastern Elev: 78 ft

Show me the last for .
Show Decoded

2019-03-24 19:53 METAR KEWB 242353Z 24009G18KT 10SM CLR 08/M03 A2998 RMK AO2 SLP152 T00781028
                 10122 20072 55001 =
2019-03-24 18:53 METAR KEWB 242253Z 24009G17KT 10SM CLR 08/M01 A2997 RMK AO2 SLP150 T00781011 =
2019-03-24 17:53 METAR KEWB 242153Z 23011G19KT 10SM CLR 08/M02 A2997 RMK AO2 SLP149 T00781022 =
2019-03-24 16:53 METAR KEWB 242053Z 21012G22KT 10SM CLR 08/M03 A2998 RMK AO2 SLP153 T00781028
                 56013 =
2019-03-24 15:53 METAR KEWB 241953Z 20014KT 10SM CLR 08/M02 A2999 RMK AO2 SLP156 T00781022 =
2019-03-24 14:53 METAR KEWB 241853Z 21016KT 10SM CLR 11/M02 A3000 RMK AO2 SLP159 T01111022 =
2019-03-24 13:53 METAR KEWB 241753Z 19014KT 10SM CLR 12/M01 A3002 RMK AO2 WSHFT 1732 SLP166
                 T01171011 10128 20006 56012 =
2019-03-24 12:53 METAR KEWB 241653Z 28014G22KT 10SM CLR 11/M07 A3004 RMK AO2 SLP174 T01111067 =
2019-03-24 11:53 METAR KEWB 241553Z 27014KT 10SM CLR 09/M06 A3006 RMK AO2 SLP179 T00941056 =
2019-03-24 10:53 METAR KEWB 241453Z 28009KT 10SM CLR 08/M06 A3008 RMK AO2 SLP188 T00781056 58001
                 =
2019-03-24 09:53 METAR KEWB 241353Z VRB05KT 10SM CLR 06/M06 A3009 RMK AO2 SLP190 T00561061 =
2019-03-24 08:53 METAR KEWB 241253Z 28009G15KT 10SM CLR 04/M06 A3009 RMK AO2 SLP189 T00391061 =
2019-03-24 07:53 METAR KEWB 241153Z 00000KT 10SM CLR 01/M05 A3009 RMK AO2 SLP189 T00061050 10006
                 21039 51013 =
2019-03-24 06:53 METAR KEWB 241053Z 20003KT 10SM CLR M03/M07 A3008 RMK AO2 SLP185 T10331072 =
2019-03-24 05:53 METAR KEWB 240953Z AUTO 00000KT 10SM CLR M03/M09 A3007 RMK AO2 SLP182 T10281089
                 =
2019-03-24 04:53 METAR KEWB 240853Z AUTO 28007KT 10SM CLR M01/M09 A3005 RMK AO2 SLP175 T10061089
                 53011 =
2019-03-24 03:53 METAR KEWB 240753Z AUTO 30004KT 10SM CLR 00/M09 A3003 RMK AO2 SLP170 T00001094 =
2019-03-24 02:53 METAR KEWB 240653Z AUTO 28008KT 10SM CLR M01/M09 A3003 RMK AO2 SLP169 T10061094
                 =
2019-03-24 01:53 METAR KEWB 240553Z AUTO 29015G23KT 10SM CLR 01/M09 A3002 RMK AO2 SLP165
                 T00061089 10044 20000 53020 =
2019-03-24 00:53 METAR KEWB 240453Z AUTO 30012G20KT 10SM CLR 01/M08 A2999 RMK AO2 SLP157
                 T00061083 400831006 =
2019-03-23 23:53 METAR KEWB 240353Z 30008G18KT 10SM CLR 01/M08 A2998 RMK AO2 SLP151 T00061083 =
2019-03-23 22:53 METAR KEWB 240253Z 29012G18KT 10SM CLR 01/M08 A2996 RMK AO2 SLP145 T00111083
                 51035 =
2019-03-23 21:53 METAR KEWB 240153Z 29017G23KT 10SM CLR 02/M07 A2993 RMK AO2 SLP135 T00221072 =
2019-03-23 20:53 METAR KEWB 240053Z 29013G19KT 10SM CLR 03/M06 A2990 RMK AO2 SLP126 T00331061 =

Support USWX by starting your Amazon purchase here.